^^
Datos históricos de la estación: Murcia-Puente Tocinos
Diario Informe para Febrero 15, 2019 Unidades:  Ambas    Inglés   Métrico
Diario Semanal Mensual Anual Configurable
  Máximo: Mínimo: Media:
Temperatura: 59.9 °F /  15.5 °C 51.6 °F /  10.9 °C 54.7 °F /  12.6 °C
Punto de rocio: 48.7 °F /  9.3 °C 42.4 °F /  5.8 °C 46 °F /  7.8 °C
Humedad: 82% 62% 73%
Velocidad viento: 9.2mph /  14.8km/h - 3.8mph /  6.1km/h
Racha viento: 17.3mph /  27.8km/h - -
Viento- - ESE
Presión: 30.4 in /  1030.0 hPa 30.3 in /  1025.7 hPa -
Precipitación: 0 in /  0.0 mm    
Historical Graphs
 
 
Tabla de datos para Febrero 15, 2019
Hora Temperatura Punto de rocio Presión Viento Velocidad viento Racha viento Humedad Intensidad lluvia(por hora) Nubes
00:00 52.5 °F /  11.4 °C 46.2 °F /  7.9 °C 30.4in /  1030.0hPa Calm     79% 0in /  0.0mm CLR
00:05 52.5 °F /  11.4 °C 45.9 °F /  7.7 °C 30.4in /  1029.9hPa Calm     78% 0in /  0.0mm CLR
00:10 52.5 °F /  11.4 °C 45.9 °F /  7.7 °C 30.4in /  1029.9hPa Calm     78% 0in /  0.0mm CLR
00:15 52.7 °F /  11.5 °C 46 °F /  7.8 °C 30.4in /  1029.9hPa Calm     78% 0in /  0.0mm CLR
00:20 52.7 °F /  11.5 °C 46 °F /  7.8 °C 30.4in /  1029.9hPa Calm     78% 0in /  0.0mm CLR
00:25 52.9 °F /  11.6 °C 46.2 °F /  7.9 °C 30.4in /  1029.9hPa Calm     78% 0in /  0.0mm CLR
00:30 52.9 °F /  11.6 °C 46.2 °F /  7.9 °C 30.4in /  1029.9hPa Calm     78% 0in /  0.0mm CLR
00:35 52.9 °F /  11.6 °C 46.2 °F /  7.9 °C 30.4in /  1029.7hPa Calm     78% 0in /  0.0mm CLR
00:40 53.1 °F /  11.7 °C 46.4 °F /  8.0 °C 30.4in /  1029.7hPa Calm     78% 0in /  0.0mm CLR
00:45 53.1 °F /  11.7 °C 46.4 °F /  8.0 °C 30.4in /  1029.7hPa Calm     78% 0in /  0.0mm CLR
00:50 53.1 °F /  11.7 °C 46.4 °F /  8.0 °C 30.4in /  1029.8hPa Calm     78% 0in /  0.0mm CLR
00:55 53.1 °F /  11.7 °C 46 °F /  7.8 °C 30.4in /  1029.8hPa Calm     77% 0in /  0.0mm CLR
01:00 53.1 °F /  11.7 °C 46.4 °F /  8.0 °C 30.4in /  1029.8hPa Calm   3mph /  4.8km/h 78% 0in /  0.0mm CLR
01:05 53.1 °F /  11.7 °C 46 °F /  7.8 °C 30.4in /  1029.7hPa Calm   4.6mph /  7.4km/h 77% 0in /  0.0mm CLR
01:10 53.1 °F /  11.7 °C 46 °F /  7.8 °C 30.4in /  1029.7hPa NE 1.8mph /  2.9km/h   77% 0in /  0.0mm CLR
01:15 53.1 °F /  11.7 °C 46.4 °F /  8.0 °C 30.4in /  1029.7hPa NE 1.8mph /  2.9km/h   78% 0in /  0.0mm CLR
01:20 53.1 °F /  11.7 °C 46.4 °F /  8.0 °C 30.4in /  1029.6hPa Calm     78% 0in /  0.0mm CLR
01:25 53.1 °F /  11.7 °C 46.4 °F /  8.0 °C 30.4in /  1029.6hPa Calm     78% 0in /  0.0mm CLR
01:30 53.1 °F /  11.7 °C 46 °F /  7.8 °C 30.4in /  1029.6hPa Calm     77% 0in /  0.0mm CLR
01:35 53.2 °F /  11.8 °C 46.2 °F /  7.9 °C 30.4in /  1029.5hPa Calm     77% 0in /  0.0mm CLR
01:40 53.2 °F /  11.8 °C 46.2 °F /  7.9 °C 30.4in /  1029.5hPa Calm     77% 0in /  0.0mm CLR
01:45 53.2 °F /  11.8 °C 46.2 °F /  7.9 °C 30.4in /  1029.5hPa Calm     77% 0in /  0.0mm CLR
01:50 53.2 °F /  11.8 °C 46.2 °F /  7.9 °C 30.4in /  1029.4hPa Calm     77% 0in /  0.0mm CLR
01:55 53.2 °F /  11.8 °C 46.2 °F /  7.9 °C 30.4in /  1029.4hPa Calm   3.5mph /  5.6km/h 77% 0in /  0.0mm CLR
02:00 53.2 °F /  11.8 °C 46.2 °F /  7.9 °C 30.4in /  1029.4hPa ENE 2mph /  3.2km/h 5mph /  8.0km/h 77% 0in /  0.0mm CLR
02:05 53.1 °F /  11.7 °C 46 °F /  7.8 °C 30.4in /  1029.4hPa ENE 1.8mph /  2.9km/h 2.3mph /  3.7km/h 77% 0in /  0.0mm CLR
02:10 53.1 °F /  11.7 °C 46 °F /  7.8 °C 30.4in /  1029.4hPa ENE 2mph /  3.2km/h 3.5mph /  5.6km/h 77% 0in /  0.0mm CLR
02:15 53.1 °F /  11.7 °C 46 °F /  7.8 °C 30.4in /  1029.4hPa ENE 2mph /  3.2km/h 2mph /  3.2km/h 77% 0in /  0.0mm CLR
02:20 53.1 °F /  11.7 °C 46 °F /  7.8 °C 30.4in /  1029.2hPa ENE 1.4mph /  2.3km/h   77% 0in /  0.0mm CLR
02:25 53.1 °F /  11.7 °C 46 °F /  7.8 °C 30.4in /  1029.2hPa East 1.4mph /  2.3km/h 4mph /  6.4km/h 77% 0in /  0.0mm CLR
02:30 52.9 °F /  11.6 °C 46.2 °F /  7.9 °C 30.4in /  1029.2hPa East 1.8mph /  2.9km/h 3.5mph /  5.6km/h 78% 0in /  0.0mm CLR
02:35 52.9 °F /  11.6 °C 46.2 °F /  7.9 °C 30.4in /  1029.2hPa East 1.8mph /  2.9km/h 2.3mph /  3.7km/h 78% 0in /  0.0mm CLR
02:40 52.9 °F /  11.6 °C 46.2 °F /  7.9 °C 30.4in /  1029.2hPa East 2.4mph /  3.9km/h 2.3mph /  3.7km/h 78% 0in /  0.0mm CLR
02:45 52.7 °F /  11.5 °C 46 °F /  7.8 °C 30.4in /  1029.2hPa East 2.4mph /  3.9km/h 3.5mph /  5.6km/h 78% 0in /  0.0mm CLR
02:50 52.7 °F /  11.5 °C 46 °F /  7.8 °C 30.4in /  1029.2hPa East 1.8mph /  2.9km/h 2.3mph /  3.7km/h 78% 0in /  0.0mm CLR
02:55 52.7 °F /  11.5 °C 46 °F /  7.8 °C 30.4in /  1029.2hPa East 1.8mph /  2.9km/h 2.3mph /  3.7km/h 78% 0in /  0.0mm CLR
03:00 52.7 °F /  11.5 °C 46 °F /  7.8 °C 30.4in /  1029.2hPa East 2mph /  3.2km/h 3mph /  4.8km/h 78% 0in /  0.0mm CLR
03:05 52.9 °F /  11.6 °C 46.2 °F /  7.9 °C 30.4in /  1029.1hPa East 1.8mph /  2.9km/h 3.5mph /  5.6km/h 78% 0in /  0.0mm CLR
03:10 52.9 °F /  11.6 °C 46.2 °F /  7.9 °C 30.4in /  1029.1hPa East 2mph /  3.2km/h 2.3mph /  3.7km/h 78% 0in /  0.0mm CLR
03:15 52.9 °F /  11.6 °C 46.2 °F /  7.9 °C 30.4in /  1029.1hPa East 2mph /  3.2km/h 2.3mph /  3.7km/h 78% 0in /  0.0mm CLR
03:20 52.9 °F /  11.6 °C 45.9 °F /  7.7 °C 30.4in /  1029.0hPa East 1.4mph /  2.3km/h 2.3mph /  3.7km/h 77% 0in /  0.0mm CLR
03:25 52.9 °F /  11.6 °C 45.9 °F /  7.7 °C 30.4in /  1029.0hPa East 1.4mph /  2.3km/h   77% 0in /  0.0mm CLR
03:30 52.9 °F /  11.6 °C 45.9 °F /  7.7 °C 30.4in /  1029.0hPa Calm     77% 0in /  0.0mm CLR
03:35 52.9 °F /  11.6 °C 45.9 °F /  7.7 °C 30.4in /  1028.9hPa Calm     77% 0in /  0.0mm CLR
03:40 52.9 °F /  11.6 °C 45.9 °F /  7.7 °C 30.4in /  1028.9hPa Calm     77% 0in /  0.0mm CLR
03:45 52.9 °F /  11.6 °C 45.9 °F /  7.7 °C 30.4in /  1028.9hPa Calm     77% 0in /  0.0mm CLR
03:50 52.9 °F /  11.6 °C 45.9 °F /  7.7 °C 30.4in /  1028.8hPa Calm     77% 0in /  0.0mm CLR
03:55 52.7 °F /  11.5 °C 45.7 °F /  7.6 °C 30.4in /  1028.8hPa Calm     77% 0in /  0.0mm CLR
04:00 52.7 °F /  11.5 °C 45.7 °F /  7.6 °C 30.4in /  1028.8hPa Calm     77% 0in /  0.0mm CLR
04:05 52.7 °F /  11.5 °C 45.7 °F /  7.6 °C 30.4in /  1028.7hPa Calm     77% 0in /  0.0mm CLR
04:10 52.7 °F /  11.5 °C 45.7 °F /  7.6 °C 30.4in /  1028.7hPa Calm     77% 0in /  0.0mm CLR
04:15 52.7 °F /  11.5 °C 45.7 °F /  7.6 °C 30.4in /  1028.7hPa Calm     77% 0in /  0.0mm CLR
04:20 52.7 °F /  11.5 °C 45.7 °F /  7.6 °C 30.4in /  1028.4hPa Calm     77% 0in /  0.0mm CLR
04:25 52.7 °F /  11.5 °C 45.7 °F /  7.6 °C 30.4in /  1028.4hPa Calm     77% 0in /  0.0mm CLR
04:30 52.7 °F /  11.5 °C 45.7 °F /  7.6 °C 30.4in /  1028.4hPa Calm     77% 0in /  0.0mm CLR
04:35 52.7 °F /  11.5 °C 45.7 °F /  7.6 °C 30.4in /  1028.4hPa Calm     77% 0in /  0.0mm CLR
04:40 52.9 °F /  11.6 °C 45.9 °F /  7.7 °C 30.4in /  1028.4hPa Calm     77% 0in /  0.0mm CLR
04:45 52.9 °F /  11.6 °C 45.9 °F /  7.7 °C 30.4in /  1028.4hPa Calm     77% 0in /  0.0mm CLR
04:50 52.9 °F /  11.6 °C 45.9 °F /  7.7 °C 30.4in /  1028.2hPa Calm     77% 0in /  0.0mm CLR
04:55 52.9 °F /  11.6 °C 45.9 °F /  7.7 °C 30.4in /  1028.2hPa Calm   3.1mph /  5.0km/h 77% 0in /  0.0mm CLR
05:00 52.9 °F /  11.6 °C 45.9 °F /  7.7 °C 30.4in /  1028.2hPa NE 2mph /  3.2km/h 4mph /  6.4km/h 77% 0in /  0.0mm CLR
05:05 52.9 °F /  11.6 °C 45.5 °F /  7.5 °C 30.4in /  1028.3hPa WNW 1.8mph /  2.9km/h 3.5mph /  5.6km/h 76% 0in /  0.0mm CLR
05:10 52.7 °F /  11.5 °C 45.3 °F /  7.4 °C 30.4in /  1028.3hPa WNW 2mph /  3.2km/h 2.3mph /  3.7km/h 76% 0in /  0.0mm CLR
05:15 52.7 °F /  11.5 °C 45.3 °F /  7.4 °C 30.4in /  1028.3hPa WNW 2mph /  3.2km/h 2.3mph /  3.7km/h 76% 0in /  0.0mm CLR
05:20 52.5 °F /  11.4 °C 45.1 °F /  7.3 °C 30.4in /  1028.2hPa WNW 1.8mph /  2.9km/h 2.9mph /  4.7km/h 76% 0in /  0.0mm CLR
05:25 52.3 °F /  11.3 °C 45 °F /  7.2 °C 30.4in /  1028.2hPa NE 1.8mph /  2.9km/h 4.6mph /  7.4km/h 76% 0in /  0.0mm CLR
05:30 52.3 °F /  11.3 °C 44.6 °F /  7.0 °C 30.4in /  1028.2hPa NE 2.4mph /  3.9km/h 3.6mph /  5.8km/h 75% 0in /  0.0mm CLR
05:35 52.3 °F /  11.3 °C 44.6 °F /  7.0 °C 30.4in /  1028.3hPa NE 2.4mph /  3.9km/h 2.3mph /  3.7km/h 75% 0in /  0.0mm CLR
05:40 52.3 °F /  11.3 °C 44.6 °F /  7.0 °C 30.4in /  1028.3hPa NNE 1.8mph /  2.9km/h 3.5mph /  5.6km/h 75% 0in /  0.0mm CLR
05:45 52.3 °F /  11.3 °C 44.6 °F /  7.0 °C 30.4in /  1028.3hPa NNE 1.8mph /  2.9km/h 2.3mph /  3.7km/h 75% 0in /  0.0mm CLR
05:50 52.3 °F /  11.3 °C 44.2 °F /  6.8 °C 30.4in /  1028.2hPa NW 1.4mph /  2.3km/h 4.6mph /  7.4km/h 74% 0in /  0.0mm CLR
05:55 52.3 °F /  11.3 °C 44.2 °F /  6.8 °C 30.4in /  1028.2hPa North 1.4mph /  2.3km/h   74% 0in /  0.0mm CLR
06:00 52.2 °F /  11.2 °C 44.1 °F /  6.7 °C 30.4in /  1028.2hPa North 2mph /  3.2km/h   74% 0in /  0.0mm CLR
06:05 52.3 °F /  11.3 °C 44.2 °F /  6.8 °C 30.4in /  1028.2hPa North 1.8mph /  2.9km/h   74% 0in /  0.0mm CLR
06:10 52.3 °F /  11.3 °C 44.2 °F /  6.8 °C 30.4in /  1028.2hPa Calm     74% 0in /  0.0mm CLR
06:15 52.3 °F /  11.3 °C 44.2 °F /  6.8 °C 30.4in /  1028.2hPa Calm     74% 0in /  0.0mm CLR
06:20 52.3 °F /  11.3 °C 43.9 °F /  6.6 °C 30.4in /  1028.2hPa Calm     73% 0in /  0.0mm CLR
06:25 52.2 °F /  11.2 °C 43.9 °F /  6.6 °C 30.4in /  1028.2hPa Calm     73% 0in /  0.0mm CLR
06:30 52.2 °F /  11.2 °C 43.9 °F /  6.6 °C 30.4in /  1028.2hPa Calm     73% 0in /  0.0mm CLR
06:35 52.2 °F /  11.2 °C 43.9 °F /  6.6 °C 30.4in /  1028.1hPa Calm     73% 0in /  0.0mm CLR
06:40 52.2 °F /  11.2 °C 43.9 °F /  6.6 °C 30.4in /  1028.1hPa Calm     73% 0in /  0.0mm CLR
06:45 52 °F /  11.1 °C 43.5 °F /  6.4 °C 30.4in /  1028.1hPa Calm   4.6mph /  7.4km/h 73% 0in /  0.0mm CLR
06:50 52 °F /  11.1 °C 43.5 °F /  6.4 °C 30.4in /  1028.3hPa NNE 1.4mph /  2.3km/h 4.6mph /  7.4km/h 73% 0in /  0.0mm CLR
06:55 52 °F /  11.1 °C 43.5 °F /  6.4 °C 30.4in /  1028.3hPa NE 1.4mph /  2.3km/h 4.6mph /  7.4km/h 73% 0in /  0.0mm CLR
07:00 52 °F /  11.1 °C 43.5 °F /  6.4 °C 30.4in /  1028.3hPa NE 2mph /  3.2km/h 6mph /  9.7km/h 73% 0in /  0.0mm CLR
07:05 52 °F /  11.1 °C 43.5 °F /  6.4 °C 30.4in /  1028.4hPa NNE 2.9mph /  4.7km/h 6.9mph /  11.1km/h 73% 0in /  0.0mm CLR
07:10 52 °F /  11.1 °C 43.5 °F /  6.4 °C 30.4in /  1028.4hPa NNE 4mph /  6.4km/h 5.2mph /  8.4km/h 73% 0in /  0.0mm CLR
07:15 52 °F /  11.1 °C 43.5 °F /  6.4 °C 30.4in /  1028.4hPa NNE 4mph /  6.4km/h 4.6mph /  7.4km/h 73% 0in /  0.0mm CLR
07:20 51.8 °F /  11.0 °C 43.2 °F /  6.2 °C 30.4in /  1028.4hPa NNE 3.6mph /  5.8km/h 4.7mph /  7.6km/h 72% 0in /  0.0mm CLR
07:25 51.8 °F /  11.0 °C 43.2 °F /  6.2 °C 30.4in /  1028.4hPa NNE 3.6mph /  5.8km/h 6.9mph /  11.1km/h 72% 0in /  0.0mm CLR
07:30 51.8 °F /  11.0 °C 43.2 °F /  6.2 °C 30.4in /  1028.4hPa North 4.3mph /  6.9km/h 6.9mph /  11.1km/h 72% 0in /  0.0mm CLR
07:35 51.8 °F /  11.0 °C 43.2 °F /  6.2 °C 30.4in /  1028.4hPa NNW 4.3mph /  6.9km/h 4.6mph /  7.4km/h 72% 0in /  0.0mm CLR
07:40 51.6 °F /  10.9 °C 43 °F /  6.1 °C 30.4in /  1028.4hPa NE 3.1mph /  5.0km/h 5.8mph /  9.3km/h 72% 0in /  0.0mm CLR
07:45 51.6 °F /  10.9 °C 43 °F /  6.1 °C 30.4in /  1028.4hPa North 3.1mph /  5.0km/h 6.4mph /  10.3km/h 72% 0in /  0.0mm CLR
07:50 51.6 °F /  10.9 °C 43 °F /  6.1 °C 30.4in /  1028.4hPa NW 3.1mph /  5.0km/h 7.6mph /  12.2km/h 72% 0in /  0.0mm CLR
07:55 51.6 °F /  10.9 °C 43 °F /  6.1 °C 30.4in /  1028.4hPa North 3.1mph /  5.0km/h 6.9mph /  11.1km/h 72% 0in /  0.0mm CLR
08:00 51.6 °F /  10.9 °C 43 °F /  6.1 °C 30.4in /  1028.4hPa NW 5mph /  8.0km/h 6mph /  9.7km/h 72% 0in /  0.0mm CLR
08:05 51.6 °F /  10.9 °C 43 °F /  6.1 °C 30.4in /  1028.5hPa NNW 4.3mph /  6.9km/h 5.8mph /  9.3km/h 72% 0in /  0.0mm CLR
08:10 51.6 °F /  10.9 °C 42.4 °F /  5.8 °C 30.4in /  1028.5hPa NW 3.6mph /  5.8km/h 4.6mph /  7.4km/h 71% 0in /  0.0mm CLR
08:15 51.6 °F /  10.9 °C 42.4 °F /  5.8 °C 30.4in /  1028.5hPa North 3.6mph /  5.8km/h 6.9mph /  11.1km/h 71% 0in /  0.0mm CLR
08:20 51.6 °F /  10.9 °C 42.4 °F /  5.8 °C 30.4in /  1028.6hPa NW 4mph /  6.4km/h 5.9mph /  9.5km/h 71% 0in /  0.0mm CLR
08:25 51.8 °F /  11.0 °C 42.6 °F /  5.9 °C 30.4in /  1028.6hPa NNW 4mph /  6.4km/h 6.9mph /  11.1km/h 71% 0in /  0.0mm CLR
08:30 51.8 °F /  11.0 °C 42.6 °F /  5.9 °C 30.4in /  1028.6hPa WNW 3.6mph /  5.8km/h 5.2mph /  8.4km/h 71% 0in /  0.0mm CLR
08:35 51.8 °F /  11.0 °C 42.6 °F /  5.9 °C 30.4in /  1028.7hPa WNW 3.6mph /  5.8km/h 7.6mph /  12.2km/h 71% 0in /  0.0mm CLR
08:40 51.8 °F /  11.0 °C 42.6 °F /  5.9 °C 30.4in /  1028.7hPa WNW 4mph /  6.4km/h 6.2mph /  10.0km/h 71% 0in /  0.0mm CLR
08:45 51.6 °F /  10.9 °C 42.4 °F /  5.8 °C 30.4in /  1028.7hPa NNW 4mph /  6.4km/h 9.2mph /  14.8km/h 71% 0in /  0.0mm CLR
08:50 51.6 °F /  10.9 °C 42.4 °F /  5.8 °C 30.4in /  1028.9hPa NW 5.2mph /  8.4km/h 8.1mph /  13.0km/h 71% 0in /  0.0mm CLR
08:55 51.8 °F /  11.0 °C 42.6 °F /  5.9 °C 30.4in /  1028.9hPa NNW 5.2mph /  8.4km/h 5.8mph /  9.3km/h 71% 0in /  0.0mm CLR
09:00 51.8 °F /  11.0 °C 42.6 °F /  5.9 °C 30.4in /  1028.9hPa North 5mph /  8.0km/h 6mph /  9.7km/h 71% 0in /  0.0mm CLR
09:05 52 °F /  11.1 °C 43 °F /  6.1 °C 30.4in /  1029.1hPa WNW 4mph /  6.4km/h 3.5mph /  5.6km/h 71% 0in /  0.0mm CLR
09:10 52 °F /  11.1 °C 43.2 °F /  6.2 °C 30.4in /  1029.1hPa WNW 2.4mph /  3.9km/h 3.5mph /  5.6km/h 72% 0in /  0.0mm CLR
09:15 52.2 °F /  11.2 °C 43 °F /  6.1 °C 30.4in /  1029.1hPa WNW 2.4mph /  3.9km/h 3.5mph /  5.6km/h 71% 0in /  0.0mm CLR
09:20 52.2 °F /  11.2 °C 42.6 °F /  5.9 °C 30.4in /  1029.1hPa NW 2.4mph /  3.9km/h 6.9mph /  11.1km/h 70% 0in /  0.0mm CLR
09:25 52.3 °F /  11.3 °C 42.8 °F /  6.0 °C 30.4in /  1029.1hPa NW 2.4mph /  3.9km/h 6.9mph /  11.1km/h 70% 0in /  0.0mm CLR
09:30 52.3 °F /  11.3 °C 42.8 °F /  6.0 °C 30.4in /  1029.1hPa North 3.6mph /  5.8km/h 4.6mph /  7.4km/h 70% 0in /  0.0mm CLR
09:35 52.5 °F /  11.4 °C 43 °F /  6.1 °C 30.4in /  1029.2hPa NNE 3.6mph /  5.8km/h 3.5mph /  5.6km/h 70% 0in /  0.0mm CLR
09:40 52.7 °F /  11.5 °C 42.8 °F /  6.0 °C 30.4in /  1029.2hPa NNE 2mph /  3.2km/h 5.9mph /  9.5km/h 69% 0in /  0.0mm CLR
09:45 52.9 °F /  11.6 °C 43 °F /  6.1 °C 30.4in /  1029.2hPa NE 2mph /  3.2km/h 2.3mph /  3.7km/h 69% 0in /  0.0mm CLR
09:50 52.9 °F /  11.6 °C 42.6 °F /  5.9 °C 30.4in /  1029.3hPa NNE 2.9mph /  4.7km/h 6.9mph /  11.1km/h 68% 0in /  0.0mm CLR
09:55 52.9 °F /  11.6 °C 42.6 °F /  5.9 °C 30.4in /  1029.3hPa North 2.9mph /  4.7km/h 3.5mph /  5.6km/h 68% 0in /  0.0mm CLR
10:00 52.9 °F /  11.6 °C 42.6 °F /  5.9 °C 30.4in /  1029.3hPa NNW 3mph /  4.8km/h 6mph /  9.7km/h 68% 0in /  0.0mm CLR
10:05 53.1 °F /  11.7 °C 42.8 °F /  6.0 °C 30.4in /  1029.3hPa NNW 3.1mph /  5.0km/h 4.7mph /  7.6km/h 68% 0in /  0.0mm CLR
10:10 53.1 °F /  11.7 °C 42.8 °F /  6.0 °C 30.4in /  1029.3hPa West 3.6mph /  5.8km/h 5.2mph /  8.4km/h 68% 0in /  0.0mm CLR
10:15 53.2 °F /  11.8 °C 43.3 °F /  6.3 °C 30.4in /  1029.3hPa NW 3.6mph /  5.8km/h 3.5mph /  5.6km/h 69% 0in /  0.0mm CLR
10:20 53.2 °F /  11.8 °C 43 °F /  6.1 °C 30.4in /  1029.4hPa East 3.1mph /  5.0km/h 4mph /  6.4km/h 68% 0in /  0.0mm CLR
10:25 53.4 °F /  11.9 °C 43.2 °F /  6.2 °C 30.4in /  1029.4hPa NE 3.1mph /  5.0km/h 2.3mph /  3.7km/h 68% 0in /  0.0mm CLR
10:30 53.6 °F /  12.0 °C 43.3 °F /  6.3 °C 30.4in /  1029.4hPa NE 2.4mph /  3.9km/h 2.3mph /  3.7km/h 68% 0in /  0.0mm CLR
10:35 53.8 °F /  12.1 °C 43.2 °F /  6.2 °C 30.4in /  1029.4hPa NNE 2.4mph /  3.9km/h 4.6mph /  7.4km/h 67% 0in /  0.0mm CLR
10:40 53.8 °F /  12.1 °C 43.2 °F /  6.2 °C 30.4in /  1029.4hPa NNE 1.8mph /  2.9km/h 2.3mph /  3.7km/h 67% 0in /  0.0mm CLR
10:45 54 °F /  12.2 °C 43.2 °F /  6.2 °C 30.4in /  1029.4hPa NNE 1.8mph /  2.9km/h 1.2mph /  1.9km/h 67% 0in /  0.0mm CLR
10:50 54.1 °F /  12.3 °C 43.3 °F /  6.3 °C 30.4in /  1029.3hPa NE 1.4mph /  2.3km/h 4.6mph /  7.4km/h 67% 0in /  0.0mm CLR
10:55 54.3 °F /  12.4 °C 43.5 °F /  6.4 °C 30.4in /  1029.3hPa NE 1.4mph /  2.3km/h   67% 0in /  0.0mm CLR
11:00 54.3 °F /  12.4 °C 43.5 °F /  6.4 °C 30.4in /  1029.3hPa NE 1mph /  1.6km/h 2mph /  3.2km/h 67% 0in /  0.0mm CLR
11:05 54.7 °F /  12.6 °C 43.9 °F /  6.6 °C 30.4in /  1029.4hPa NE 1.4mph /  2.3km/h 4.6mph /  7.4km/h 67% 0in /  0.0mm CLR
11:10 54.9 °F /  12.7 °C 44.1 °F /  6.7 °C 30.4in /  1029.4hPa WNW 2mph /  3.2km/h 3.6mph /  5.8km/h 67% 0in /  0.0mm CLR
11:15 55 °F /  12.8 °C 43.9 °F /  6.6 °C 30.4in /  1029.4hPa NNE 2mph /  3.2km/h 5.4mph /  8.7km/h 66% 0in /  0.0mm CLR
11:20 55 °F /  12.8 °C 43.9 °F /  6.6 °C 30.4in /  1029.4hPa NNW 2mph /  3.2km/h 4.6mph /  7.4km/h 66% 0in /  0.0mm CLR
11:25 55.2 °F /  12.9 °C 44.1 °F /  6.7 °C 30.4in /  1029.4hPa NNW 2mph /  3.2km/h 6.9mph /  11.1km/h 66% 0in /  0.0mm CLR
11:30 55 °F /  12.8 °C 43.9 °F /  6.6 °C 30.4in /  1029.4hPa East 3.1mph /  5.0km/h 4.6mph /  7.4km/h 66% 0in /  0.0mm CLR
11:35 55 °F /  12.8 °C 44.2 °F /  6.8 °C 30.4in /  1029.4hPa NE 3.1mph /  5.0km/h 4.6mph /  7.4km/h 67% 0in /  0.0mm CLR
11:40 55 °F /  12.8 °C 44.2 °F /  6.8 °C 30.4in /  1029.4hPa NE 3.1mph /  5.0km/h   67% 0in /  0.0mm CLR
11:45 55.2 °F /  12.9 °C 44.4 °F /  6.9 °C 30.4in /  1029.4hPa North 3.1mph /  5.0km/h 4.6mph /  7.4km/h 67% 0in /  0.0mm CLR
11:50 55.6 °F /  13.1 °C 44.8 °F /  7.1 °C 30.4in /  1029.3hPa WNW 1.8mph /  2.9km/h 5.8mph /  9.3km/h 67% 0in /  0.0mm CLR
11:55 55.6 °F /  13.1 °C 44.8 °F /  7.1 °C 30.4in /  1029.3hPa WNW 1.8mph /  2.9km/h 4.6mph /  7.4km/h 67% 0in /  0.0mm CLR
12:00 55.6 °F /  13.1 °C 44.8 °F /  7.1 °C 30.4in /  1029.3hPa WNW 2mph /  3.2km/h 5mph /  8.0km/h 67% 0in /  0.0mm CLR
12:05 55.8 °F /  13.2 °C 45.3 °F /  7.4 °C 30.4in /  1029.3hPa ENE 2.9mph /  4.7km/h 10.4mph /  16.7km/h 68% 0in /  0.0mm CLR
12:10 55.8 °F /  13.2 °C 45.3 °F /  7.4 °C 30.4in /  1029.3hPa NE 4mph /  6.4km/h 7.4mph /  11.9km/h 68% 0in /  0.0mm CLR
12:15 55.8 °F /  13.2 °C 45.3 °F /  7.4 °C 30.4in /  1029.3hPa ENE 4mph /  6.4km/h 8.5mph /  13.7km/h 68% 0in /  0.0mm CLR
12:20 55.6 °F /  13.1 °C 45.1 °F /  7.3 °C 30.4in /  1029.2hPa NNW 5.4mph /  8.7km/h 5.8mph /  9.3km/h 68% 0in /  0.0mm CLR
12:25 55.8 °F /  13.2 °C 45.3 °F /  7.4 °C 30.4in /  1029.2hPa NE 5.4mph /  8.7km/h 4.6mph /  7.4km/h 68% 0in /  0.0mm CLR
12:30 55.8 °F /  13.2 °C 45 °F /  7.2 °C 30.4in /  1029.2hPa North 3.1mph /  5.0km/h 7.4mph /  11.9km/h 67% 0in /  0.0mm CLR
12:35 55.8 °F /  13.2 °C 45.3 °F /  7.4 °C 30.4in /  1029.0hPa NNW 3.1mph /  5.0km/h 5.8mph /  9.3km/h 68% 0in /  0.0mm CLR
12:40 55.9 °F /  13.3 °C 45.5 °F /  7.5 °C 30.4in /  1029.0hPa NNE 4.3mph /  6.9km/h 9.2mph /  14.8km/h 68% 0in /  0.0mm CLR
12:45 55.9 °F /  13.3 °C 45.5 °F /  7.5 °C 30.4in /  1029.0hPa NNE 4.3mph /  6.9km/h 4.6mph /  7.4km/h 68% 0in /  0.0mm CLR
12:50 55.9 °F /  13.3 °C 45.1 °F /  7.3 °C 30.4in /  1028.7hPa NE 4mph /  6.4km/h 5.8mph /  9.3km/h 67% 0in /  0.0mm CLR
12:55 56.1 °F /  13.4 °C 45.3 °F /  7.4 °C 30.4in /  1028.7hPa NE 4mph /  6.4km/h 6.9mph /  11.1km/h 67% 0in /  0.0mm CLR
13:00 56.1 °F /  13.4 °C 45.3 °F /  7.4 °C 30.4in /  1028.7hPa NE 3mph /  4.8km/h 7mph /  11.3km/h 67% 0in /  0.0mm CLR
13:05 56.3 °F /  13.5 °C 45.5 °F /  7.5 °C 30.4in /  1028.4hPa NNW 3.6mph /  5.8km/h 4.6mph /  7.4km/h 67% 0in /  0.0mm CLR
13:10 56.7 °F /  13.7 °C 45.9 °F /  7.7 °C 30.4in /  1028.4hPa ENE 2.4mph /  3.9km/h 2.3mph /  3.7km/h 67% 0in /  0.0mm CLR
13:15 56.8 °F /  13.8 °C 45.7 °F /  7.6 °C 30.4in /  1028.4hPa NW 2.4mph /  3.9km/h 4.6mph /  7.4km/h 66% 0in /  0.0mm CLR
13:20 57 °F /  13.9 °C 45.9 °F /  7.7 °C 30.4in /  1028.1hPa NNE 2.9mph /  4.7km/h 4.6mph /  7.4km/h 66% 0in /  0.0mm CLR
13:25 57.4 °F /  14.1 °C 45.7 °F /  7.6 °C 30.4in /  1028.1hPa NNW 2.9mph /  4.7km/h 4.6mph /  7.4km/h 65% 0in /  0.0mm CLR
13:30 57.4 °F /  14.1 °C 45.7 °F /  7.6 °C 30.4in /  1028.1hPa North 2.4mph /  3.9km/h 6.9mph /  11.1km/h 65% 0in /  0.0mm CLR
13:35 57.6 °F /  14.2 °C 45.9 °F /  7.7 °C 30.4in /  1027.9hPa NE 2.4mph /  3.9km/h 8.1mph /  13.0km/h 65% 0in /  0.0mm CLR
13:40 57.6 °F /  14.2 °C 45.9 °F /  7.7 °C 30.4in /  1027.9hPa NNE 5.2mph /  8.4km/h 8.1mph /  13.0km/h 65% 0in /  0.0mm CLR
13:45 57.2 °F /  14.0 °C 45.5 °F /  7.5 °C 30.4in /  1027.9hPa NE 5.2mph /  8.4km/h 8.5mph /  13.7km/h 65% 0in /  0.0mm CLR
13:50 57.4 °F /  14.1 °C 45.7 °F /  7.6 °C 30.3in /  1027.5hPa NNE 4.3mph /  6.9km/h 8.1mph /  13.0km/h 65% 0in /  0.0mm CLR
13:55 57.4 °F /  14.1 °C 45.7 °F /  7.6 °C 30.3in /  1027.5hPa East 4.3mph /  6.9km/h 6.9mph /  11.1km/h 65% 0in /  0.0mm CLR
14:00 57.6 °F /  14.2 °C 45.9 °F /  7.7 °C 30.3in /  1027.5hPa NE 6mph /  9.7km/h 13mph /  20.9km/h 65% 0in /  0.0mm CLR
14:05 57.9 °F /  14.4 °C 46.2 °F /  7.9 °C 30.3in /  1027.2hPa NNE 5.9mph /  9.5km/h 6.9mph /  11.1km/h 65% 0in /  0.0mm CLR
14:10 57.9 °F /  14.4 °C 45.9 °F /  7.7 °C 30.3in /  1027.2hPa NNE 4.3mph /  6.9km/h 4.7mph /  7.6km/h 64% 0in /  0.0mm CLR
14:15 57.9 °F /  14.4 °C 45.9 °F /  7.7 °C 30.3in /  1027.2hPa NNE 4.3mph /  6.9km/h 9.2mph /  14.8km/h 64% 0in /  0.0mm CLR
14:20 57.9 °F /  14.4 °C 46.2 °F /  7.9 °C 30.3in /  1027.0hPa North 4.7mph /  7.6km/h 6.9mph /  11.1km/h 65% 0in /  0.0mm CLR
14:25 57.9 °F /  14.4 °C 46.2 °F /  7.9 °C 30.3in /  1027.0hPa NE 4.7mph /  7.6km/h 6.9mph /  11.1km/h 65% 0in /  0.0mm CLR
14:30 58.5 °F /  14.7 °C 45.9 °F /  7.7 °C 30.3in /  1027.0hPa ESE 4mph /  6.4km/h 11.5mph /  18.5km/h 63% 0in /  0.0mm CLR
14:35 58.8 °F /  14.9 °C 46.8 °F /  8.2 °C 30.3in /  1026.6hPa ENE 4mph /  6.4km/h 9.2mph /  14.8km/h 64% 0in /  0.0mm CLR
14:40 59.4 °F /  15.2 °C 46.8 °F /  8.2 °C 30.3in /  1026.6hPa NE 5.4mph /  8.7km/h 13.8mph /  22.2km/h 63% 0in /  0.0mm CLR
14:45 59.5 °F /  15.3 °C 46.6 °F /  8.1 °C 30.3in /  1026.6hPa NNE 5.4mph /  8.7km/h 9.2mph /  14.8km/h 62% 0in /  0.0mm CLR
14:50 59.7 °F /  15.4 °C 47.1 °F /  8.4 °C 30.3in /  1026.4hPa NNE 5.9mph /  9.5km/h 13.8mph /  22.2km/h 63% 0in /  0.0mm CLR
14:55 59.5 °F /  15.3 °C 46.9 °F /  8.3 °C 30.3in /  1026.4hPa NNE 5.9mph /  9.5km/h 12.7mph /  20.4km/h 63% 0in /  0.0mm CLR
15:00 59.2 °F /  15.1 °C 46.6 °F /  8.1 °C 30.3in /  1026.4hPa NNE 8mph /  12.9km/h 15mph /  24.1km/h 63% 0in /  0.0mm CLR
15:05 59 °F /  15.0 °C 46.8 °F /  8.2 °C 30.3in /  1026.2hPa East 8.5mph /  13.7km/h 9.2mph /  14.8km/h 64% 0in /  0.0mm CLR
15:10 59.4 °F /  15.2 °C 46.8 °F /  8.2 °C 30.3in /  1026.2hPa NNW 8.5mph /  13.7km/h 12.7mph /  20.4km/h 63% 0in /  0.0mm CLR
15:15 59.4 °F /  15.2 °C 46.8 °F /  8.2 °C 30.3in /  1026.2hPa NNE 8.5mph /  13.7km/h 11.5mph /  18.5km/h 63% 0in /  0.0mm CLR
15:20 59.4 °F /  15.2 °C 46.8 °F /  8.2 °C 30.3in /  1026.1hPa NE 6.4mph /  10.3km/h 13.8mph /  22.2km/h 63% 0in /  0.0mm CLR
15:25 59.2 °F /  15.1 °C 46.9 °F /  8.3 °C 30.3in /  1026.1hPa NE 6.4mph /  10.3km/h 11.5mph /  18.5km/h 64% 0in /  0.0mm CLR
15:30 59.4 °F /  15.2 °C 47.1 °F /  8.4 °C 30.3in /  1026.1hPa ENE 7.6mph /  12.2km/h 13.8mph /  22.2km/h 64% 0in /  0.0mm CLR
15:35 59.2 °F /  15.1 °C 46.6 °F /  8.1 °C 30.3in /  1025.9hPa NE 7.6mph /  12.2km/h 17.3mph /  27.8km/h 63% 0in /  0.0mm CLR
15:40 58.8 °F /  14.9 °C 47.1 °F /  8.4 °C 30.3in /  1025.9hPa North 9.2mph /  14.8km/h 9.7mph /  15.6km/h 65% 0in /  0.0mm CLR
15:45 59.2 °F /  15.1 °C 47.5 °F /  8.6 °C 30.3in /  1025.9hPa East 9.2mph /  14.8km/h 12.7mph /  20.4km/h 65% 0in /  0.0mm CLR
15:50 59.5 °F /  15.3 °C 47.3 °F /  8.5 °C 30.3in /  1025.8hPa NE 6.4mph /  10.3km/h 12.7mph /  20.4km/h 64% 0in /  0.0mm CLR
15:55 59.9 °F /  15.5 °C 47.7 °F /  8.7 °C 30.3in /  1025.8hPa NNE 6.4mph /  10.3km/h 17.3mph /  27.8km/h 64% 0in /  0.0mm CLR
16:00 59.5 °F /  15.3 °C 46.9 °F /  8.3 °C 30.3in /  1025.8hPa NE 8mph /  12.9km/h 17mph /  27.4km/h 63% 0in /  0.0mm CLR
16:05 59 °F /  15.0 °C 47.1 °F /  8.4 °C 30.3in /  1025.8hPa NE 8.5mph /  13.7km/h 6.9mph /  11.1km/h 65% 0in /  0.0mm CLR
16:10 59.4 °F /  15.2 °C 48 °F /  8.9 °C 30.3in /  1025.8hPa NE 7.4mph /  11.9km/h 10.4mph /  16.7km/h 66% 0in /  0.0mm CLR
16:15 59.7 °F /  15.4 °C 47.8 °F /  8.8 °C 30.3in /  1025.8hPa East 7.4mph /  11.9km/h 13.8mph /  22.2km/h 65% 0in /  0.0mm CLR
16:20 59.7 °F /  15.4 °C 47.8 °F /  8.8 °C 30.3in /  1025.7hPa NE 7.6mph /  12.2km/h 10.4mph /  16.7km/h 65% 0in /  0.0mm CLR
16:25 59.5 °F /  15.3 °C 47.8 °F /  8.8 °C 30.3in /  1025.7hPa North 7.6mph /  12.2km/h 16.1mph /  25.9km/h 65% 0in /  0.0mm CLR
16:30 58.8 °F /  14.9 °C 47.1 °F /  8.4 °C 30.3in /  1025.7hPa NNE 7.4mph /  11.9km/h 11.5mph /  18.5km/h 65% 0in /  0.0mm CLR
16:35 58.6 °F /  14.8 °C 47.3 °F /  8.5 °C 30.3in /  1025.7hPa NNE 7.4mph /  11.9km/h 12.7mph /  20.4km/h 66% 0in /  0.0mm CLR
16:40 58.8 °F /  14.9 °C 47.8 °F /  8.8 °C 30.3in /  1025.7hPa ESE 7.4mph /  11.9km/h 10.4mph /  16.7km/h 67% 0in /  0.0mm CLR
16:45 59 °F /  15.0 °C 47.7 °F /  8.7 °C 30.3in /  1025.7hPa ESE 7.4mph /  11.9km/h 10.4mph /  16.7km/h 66% 0in /  0.0mm CLR
16:50 58.8 °F /  14.9 °C 47.5 °F /  8.6 °C 30.3in /  1025.7hPa ENE 6.9mph /  11.1km/h 9.2mph /  14.8km/h 66% 0in /  0.0mm CLR
16:55 58.8 °F /  14.9 °C 47.8 °F /  8.8 °C 30.3in /  1025.7hPa ESE 6.9mph /  11.1km/h 5.8mph /  9.3km/h 67% 0in /  0.0mm CLR
17:00 58.8 °F /  14.9 °C 47.8 °F /  8.8 °C 30.3in /  1025.7hPa ENE 6mph /  9.7km/h 13mph /  20.9km/h 67% 0in /  0.0mm CLR
17:05 58.6 °F /  14.8 °C 48 °F /  8.9 °C 30.3in /  1025.7hPa NE 5.9mph /  9.5km/h 10.4mph /  16.7km/h 68% 0in /  0.0mm CLR
17:10 58.6 °F /  14.8 °C 47.7 °F /  8.7 °C 30.3in /  1025.7hPa ENE 6.2mph /  10.0km/h 11.5mph /  18.5km/h 67% 0in /  0.0mm CLR
17:15 58.3 °F /  14.6 °C 47.8 °F /  8.8 °C 30.3in /  1025.7hPa East 6.2mph /  10.0km/h 8.1mph /  13.0km/h 68% 0in /  0.0mm CLR
17:20 58.3 °F /  14.6 °C 47.8 °F /  8.8 °C 30.3in /  1025.8hPa ENE 7.4mph /  11.9km/h 9.2mph /  14.8km/h 68% 0in /  0.0mm CLR
17:25 58.3 °F /  14.6 °C 48.2 °F /  9.0 °C 30.3in /  1025.8hPa NE 7.4mph /  11.9km/h 10.4mph /  16.7km/h 69% 0in /  0.0mm CLR
17:30 58.3 °F /  14.6 °C 48.2 °F /  9.0 °C 30.3in /  1025.8hPa ESE 6.2mph /  10.0km/h 8.1mph /  13.0km/h 69% 0in /  0.0mm CLR
17:35 58.1 °F /  14.5 °C 47.7 °F /  8.7 °C 30.3in /  1025.8hPa ENE 6.2mph /  10.0km/h 13.8mph /  22.2km/h 68% 0in /  0.0mm CLR
17:40 57.9 °F /  14.4 °C 47.8 °F /  8.8 °C 30.3in /  1025.8hPa ENE 6.2mph /  10.0km/h 11.8mph /  19.0km/h 69% 0in /  0.0mm CLR
17:45 57.7 °F /  14.3 °C 48 °F /  8.9 °C 30.3in /  1025.8hPa East 6.2mph /  10.0km/h 10.4mph /  16.7km/h 70% 0in /  0.0mm CLR
17:50 57.6 °F /  14.2 °C 47.8 °F /  8.8 °C 30.3in /  1025.8hPa East 5.9mph /  9.5km/h 12.7mph /  20.4km/h 70% 0in /  0.0mm CLR
17:55 57.6 °F /  14.2 °C 47.8 °F /  8.8 °C 30.3in /  1025.8hPa NE 5.9mph /  9.5km/h 13.8mph /  22.2km/h 70% 0in /  0.0mm CLR
18:00 57.4 °F /  14.1 °C 47.7 °F /  8.7 °C 30.3in /  1025.8hPa NE 8mph /  12.9km/h 15mph /  24.1km/h 70% 0in /  0.0mm CLR
18:05 57 °F /  13.9 °C 47.7 °F /  8.7 °C 30.3in /  1025.8hPa ENE 7.6mph /  12.2km/h 11.5mph /  18.5km/h 71% 0in /  0.0mm CLR
18:10 56.8 °F /  13.8 °C 47.8 °F /  8.8 °C 30.3in /  1025.8hPa NE 7.6mph /  12.2km/h 8.1mph /  13.0km/h 72% 0in /  0.0mm CLR
18:15 56.8 °F /  13.8 °C 47.8 °F /  8.8 °C 30.3in /  1025.8hPa NE 7.6mph /  12.2km/h 9.2mph /  14.8km/h 72% 0in /  0.0mm CLR
18:20 56.7 °F /  13.7 °C 48 °F /  8.9 °C 30.3in /  1025.9hPa ENE 6.2mph /  10.0km/h 9.7mph /  15.6km/h 73% 0in /  0.0mm CLR
18:25 56.5 °F /  13.6 °C 47.8 °F /  8.8 °C 30.3in /  1025.9hPa NNE 6.2mph /  10.0km/h 11.5mph /  18.5km/h 73% 0in /  0.0mm CLR
18:30 56.5 °F /  13.6 °C 47.8 °F /  8.8 °C 30.3in /  1025.9hPa NE 5.4mph /  8.7km/h 10.4mph /  16.7km/h 73% 0in /  0.0mm CLR
18:35 56.5 °F /  13.6 °C 48.4 °F /  9.1 °C 30.3in /  1026.0hPa East 5.4mph /  8.7km/h 10.2mph /  16.4km/h 74% 0in /  0.0mm CLR
18:40 56.1 °F /  13.4 °C 47.8 °F /  8.8 °C 30.3in /  1026.0hPa NE 5.9mph /  9.5km/h 9.2mph /  14.8km/h 74% 0in /  0.0mm CLR
18:45 56.1 °F /  13.4 °C 48.4 °F /  9.1 °C 30.3in /  1026.0hPa NNE 5.9mph /  9.5km/h 10.4mph /  16.7km/h 75% 0in /  0.0mm CLR
18:50 56.1 °F /  13.4 °C 48.4 °F /  9.1 °C 30.3in /  1026.1hPa NE 5.4mph /  8.7km/h 8.1mph /  13.0km/h 75% 0in /  0.0mm CLR
18:55 55.9 °F /  13.3 °C 48.6 °F /  9.2 °C 30.3in /  1026.1hPa ENE 5.4mph /  8.7km/h 11.5mph /  18.5km/h 76% 0in /  0.0mm CLR
19:00 55.9 °F /  13.3 °C 48.6 °F /  9.2 °C 30.3in /  1026.1hPa NE 6mph /  9.7km/h 9mph /  14.5km/h 76% 0in /  0.0mm CLR
19:05 55.8 °F /  13.2 °C 48.7 °F /  9.3 °C 30.3in /  1026.3hPa ENE 5.9mph /  9.5km/h 9.2mph /  14.8km/h 77% 0in /  0.0mm CLR
19:10 55.8 °F /  13.2 °C 48.7 °F /  9.3 °C 30.3in /  1026.3hPa NNE 6.2mph /  10.0km/h 8.1mph /  13.0km/h 77% 0in /  0.0mm CLR
19:15 55.6 °F /  13.1 °C 48.6 °F /  9.2 °C 30.3in /  1026.3hPa NNE 6.2mph /  10.0km/h 9.2mph /  14.8km/h 77% 0in /  0.0mm CLR
19:20 55.4 °F /  13.0 °C 48.4 °F /  9.1 °C 30.3in /  1026.4hPa NE 6.2mph /  10.0km/h 9.2mph /  14.8km/h 77% 0in /  0.0mm CLR
19:25 55.4 °F /  13.0 °C 48.4 °F /  9.1 °C 30.3in /  1026.4hPa NNE 6.2mph /  10.0km/h 9.2mph /  14.8km/h 77% 0in /  0.0mm CLR
19:30 55.2 °F /  12.9 °C 48 °F /  8.9 °C 30.3in /  1026.4hPa NE 6.2mph /  10.0km/h 8.1mph /  13.0km/h 77% 0in /  0.0mm CLR
19:35 55.2 °F /  12.9 °C 48.6 °F /  9.2 °C 30.3in /  1026.4hPa ENE 6.2mph /  10.0km/h 12.7mph /  20.4km/h 78% 0in /  0.0mm CLR
19:40 55.2 °F /  12.9 °C 48.6 °F /  9.2 °C 30.3in /  1026.4hPa ENE 6.2mph /  10.0km/h 9.2mph /  14.8km/h 78% 0in /  0.0mm CLR
19:45 55.2 °F /  12.9 °C 48.6 °F /  9.2 °C 30.3in /  1026.4hPa North 6.2mph /  10.0km/h 9.2mph /  14.8km/h 78% 0in /  0.0mm CLR
19:50 55.2 °F /  12.9 °C 48.6 °F /  9.2 °C 30.3in /  1026.5hPa NE 5.4mph /  8.7km/h 4.7mph /  7.6km/h 78% 0in /  0.0mm CLR
19:55 55.2 °F /  12.9 °C 48.6 °F /  9.2 °C 30.3in /  1026.5hPa NE 5.4mph /  8.7km/h 5.8mph /  9.3km/h 78% 0in /  0.0mm CLR
20:00 55.2 °F /  12.9 °C 48.6 °F /  9.2 °C 30.3in /  1026.5hPa NE 5mph /  8.0km/h 7mph /  11.3km/h 78% 0in /  0.0mm CLR
20:05 55.2 °F /  12.9 °C 48.6 °F /  9.2 °C 30.3in /  1026.5hPa ENE 4.3mph /  6.9km/h 8.1mph /  13.0km/h 78% 0in /  0.0mm CLR
20:10 55.2 °F /  12.9 °C 48.6 °F /  9.2 °C 30.3in /  1026.5hPa NE 4.7mph /  7.6km/h 9.2mph /  14.8km/h 78% 0in /  0.0mm CLR
20:15 55 °F /  12.8 °C 48.4 °F /  9.1 °C 30.3in /  1026.5hPa NE 4.7mph /  7.6km/h 6.9mph /  11.1km/h 78% 0in /  0.0mm CLR
20:20 55 °F /  12.8 °C 48.4 °F /  9.1 °C 30.3in /  1026.6hPa NE 5.9mph /  9.5km/h 9.2mph /  14.8km/h 78% 0in /  0.0mm CLR
20:25 55 °F /  12.8 °C 48 °F /  8.9 °C 30.3in /  1026.6hPa ENE 5.9mph /  9.5km/h 9.2mph /  14.8km/h 77% 0in /  0.0mm CLR
20:30 55.2 °F /  12.9 °C 48 °F /  8.9 °C 30.3in /  1026.6hPa NE 5.9mph /  9.5km/h 10.4mph /  16.7km/h 77% 0in /  0.0mm CLR
20:35 55.2 °F /  12.9 °C 48 °F /  8.9 °C 30.3in /  1026.6hPa NE 5.9mph /  9.5km/h 6.9mph /  11.1km/h 77% 0in /  0.0mm CLR
20:40 55.2 °F /  12.9 °C 48 °F /  8.9 °C 30.3in /  1026.6hPa NNE 5.2mph /  8.4km/h 9.2mph /  14.8km/h 77% 0in /  0.0mm CLR
20:45 55.2 °F /  12.9 °C 48.6 °F /  9.2 °C 30.3in /  1026.6hPa NE 5.2mph /  8.4km/h 9.2mph /  14.8km/h 78% 0in /  0.0mm CLR
20:50 55.2 °F /  12.9 °C 48.6 °F /  9.2 °C 30.3in /  1026.6hPa NE 6.4mph /  10.3km/h 8.1mph /  13.0km/h 78% 0in /  0.0mm CLR
20:55 55.2 °F /  12.9 °C 48.6 °F /  9.2 °C 30.3in /  1026.6hPa NE 6.4mph /  10.3km/h 6.9mph /  11.1km/h 78% 0in /  0.0mm CLR
21:00 55 °F /  12.8 °C 48.4 °F /  9.1 °C 30.3in /  1026.6hPa NE 6mph /  9.7km/h 10mph /  16.1km/h 78% 0in /  0.0mm CLR
21:05 55 °F /  12.8 °C 48.4 °F /  9.1 °C 30.3in /  1026.8hPa ENE 5.4mph /  8.7km/h 10.4mph /  16.7km/h 78% 0in /  0.0mm CLR
21:10 55 °F /  12.8 °C 48.6 °F /  9.2 °C 30.3in /  1026.8hPa NNE 5.4mph /  8.7km/h 8.7mph /  14.0km/h 79% 0in /  0.0mm CLR
21:15 54.9 °F /  12.7 °C 48.6 °F /  9.2 °C 30.3in /  1026.8hPa NNE 5.4mph /  8.7km/h 11.5mph /  18.5km/h 79% 0in /  0.0mm CLR
21:20 54.9 °F /  12.7 °C 48 °F /  8.9 °C 30.3in /  1026.8hPa NE 7.4mph /  11.9km/h 10.4mph /  16.7km/h 78% 0in /  0.0mm CLR
21:25 54.9 °F /  12.7 °C 48.6 °F /  9.2 °C 30.3in /  1026.8hPa NNE 7.4mph /  11.9km/h 9.2mph /  14.8km/h 79% 0in /  0.0mm CLR
21:30 54.9 °F /  12.7 °C 48.6 °F /  9.2 °C 30.3in /  1026.8hPa NNE 6.9mph /  11.1km/h 10.4mph /  16.7km/h 79% 0in /  0.0mm CLR
21:35 54.7 °F /  12.6 °C 48.6 °F /  9.2 °C 30.3in /  1026.9hPa NNE 6.9mph /  11.1km/h 10.4mph /  16.7km/h 80% 0in /  0.0mm CLR
21:40 54.7 °F /  12.6 °C 48.6 °F /  9.2 °C 30.3in /  1026.9hPa NNE 6.9mph /  11.1km/h 11.5mph /  18.5km/h 80% 0in /  0.0mm CLR
21:45 54.5 °F /  12.5 °C 48.6 °F /  9.2 °C 30.3in /  1026.9hPa NE 6.9mph /  11.1km/h 8.1mph /  13.0km/h 80% 0in /  0.0mm CLR
21:50 54.3 °F /  12.4 °C 48.6 °F /  9.2 °C 30.3in /  1026.9hPa North 7.6mph /  12.2km/h 10.2mph /  16.4km/h 81% 0in /  0.0mm CLR
21:55 54.3 °F /  12.4 °C 48.6 °F /  9.2 °C 30.3in /  1026.9hPa NE 7.6mph /  12.2km/h 8.1mph /  13.0km/h 81% 0in /  0.0mm CLR
22:00 54.3 °F /  12.4 °C 48.6 °F /  9.2 °C 30.3in /  1026.9hPa NNE 6mph /  9.7km/h 10mph /  16.1km/h 81% 0in /  0.0mm CLR
22:05 54.3 °F /  12.4 °C 48.6 °F /  9.2 °C 30.3in /  1027.1hPa North 6.2mph /  10.0km/h 8.7mph /  14.0km/h 81% 0in /  0.0mm CLR
22:10 54.1 °F /  12.3 °C 48.4 °F /  9.1 °C 30.3in /  1027.1hPa NNE 5.4mph /  8.7km/h 6.9mph /  11.1km/h 81% 0in /  0.0mm CLR
22:15 54.1 °F /  12.3 °C 48.4 °F /  9.1 °C 30.3in /  1027.1hPa NNE 5.4mph /  8.7km/h 10.4mph /  16.7km/h 81% 0in /  0.0mm CLR
22:20 54.1 °F /  12.3 °C 48.4 °F /  9.1 °C 30.3in /  1027.3hPa NE 5.4mph /  8.7km/h 10.4mph /  16.7km/h 81% 0in /  0.0mm CLR
22:25 54.1 °F /  12.3 °C 48.4 °F /  9.1 °C 30.3in /  1027.3hPa NNE 5.4mph /  8.7km/h 9.2mph /  14.8km/h 81% 0in /  0.0mm CLR
22:30 54.1 °F /  12.3 °C 48.4 °F /  9.1 °C 30.3in /  1027.3hPa NNE 6.4mph /  10.3km/h 10.4mph /  16.7km/h 81% 0in /  0.0mm CLR
22:35 54.1 °F /  12.3 °C 48.4 °F /  9.1 °C 30.3in /  1027.2hPa NNE 6.4mph /  10.3km/h 9.2mph /  14.8km/h 81% 0in /  0.0mm CLR
22:40 54.1 °F /  12.3 °C 48.4 °F /  9.1 °C 30.3in /  1027.2hPa North 6.4mph /  10.3km/h 10.4mph /  16.7km/h 81% 0in /  0.0mm CLR
22:45 54 °F /  12.2 °C 48.4 °F /  9.1 °C 30.3in /  1027.2hPa NE 6.4mph /  10.3km/h 11.5mph /  18.5km/h 81% 0in /  0.0mm CLR
22:50 54 °F /  12.2 °C 48.4 °F /  9.1 °C 30.3in /  1027.3hPa NE 6.9mph /  11.1km/h 6.9mph /  11.1km/h 81% 0in /  0.0mm CLR
22:55 54 °F /  12.2 °C 48.6 °F /  9.2 °C 30.3in /  1027.3hPa NE 6.9mph /  11.1km/h 10.2mph /  16.4km/h 82% 0in /  0.0mm CLR
23:00 54 °F /  12.2 °C 48.6 °F /  9.2 °C 30.3in /  1027.3hPa NNE 6mph /  9.7km/h 10mph /  16.1km/h 82% 0in /  0.0mm CLR
23:05 54 °F /  12.2 °C 48.6 °F /  9.2 °C 30.3in /  1027.3hPa NNE 5.4mph /  8.7km/h 9.2mph /  14.8km/h 82% 0in /  0.0mm CLR
23:10 53.8 °F /  12.1 °C 48.4 °F /  9.1 °C 30.3in /  1027.3hPa NNE 5.9mph /  9.5km/h 8.1mph /  13.0km/h 82% 0in /  0.0mm CLR
23:15 53.8 °F /  12.1 °C 48.4 °F /  9.1 °C 30.3in /  1027.3hPa NNE 5.9mph /  9.5km/h 8.1mph /  13.0km/h 82% 0in /  0.0mm CLR
23:20 53.8 °F /  12.1 °C 48.4 °F /  9.1 °C 30.3in /  1027.2hPa NNE 5.4mph /  8.7km/h 9.2mph /  14.8km/h 82% 0in /  0.0mm CLR
23:25 53.8 °F /  12.1 °C 48.4 °F /  9.1 °C 30.3in /  1027.2hPa NE 5.4mph /  8.7km/h 9.2mph /  14.8km/h 82% 0in /  0.0mm CLR
23:30 53.8 °F /  12.1 °C 48.4 °F /  9.1 °C 30.3in /  1027.2hPa NE 6.2mph /  10.0km/h 8.1mph /  13.0km/h 82% 0in /  0.0mm CLR
23:35 53.6 °F /  12.0 °C 48.2 °F /  9.0 °C 30.3in /  1027.2hPa North 6.2mph /  10.0km/h 9.2mph /  14.8km/h 82% 0in /  0.0mm CLR
23:40 53.6 °F /  12.0 °C 48.2 °F /  9.0 °C 30.3in /  1027.2hPa NNE 5.2mph /  8.4km/h 9.2mph /  14.8km/h 82% 0in /  0.0mm CLR
23:45 53.6 °F /  12.0 °C 48.2 °F /  9.0 °C 30.3in /  1027.2hPa NNE 5.2mph /  8.4km/h 8.1mph /  13.0km/h 82% 0in /  0.0mm CLR
23:50 53.4 °F /  11.9 °C 48 °F /  8.9 °C 30.3in /  1027.1hPa NNE 5.4mph /  8.7km/h 6.9mph /  11.1km/h 82% 0in /  0.0mm CLR
23:55 53.4 °F /  11.9 °C 48 °F /  8.9 °C 30.3in /  1027.1hPa North 5.4mph /  8.7km/h 9.2mph /  14.8km/h 82% 0in /  0.0mm CLR
Murcia-Puente Tocinos, España
Compliments of Weather Underground - 2.75 mb

La estación de MeteoMurcia.com, publica sus datos en los siguientes proyectos:

Weather Underground PWS IMURCIAP2 Meteoclimatic www.awekas.at

W3Counter
Web Analytics